Time;durP1;ratioP1;P1;durP2;ratioP2;P2;SDS_P1;SDS_P2;PMS_P1;PMS_P2;Temp;Humidity;BMP_temperature;BMP_pressure;BME280_temperature;BME280_humidity;BME280_pressure;Samples;Min_cycle;Max_cycle;Signal;HPM_P1;HPM_P2
2021/09/20 00:01:33;;;;;;;14.63;13.13;;;11.50;99.90;;;;;;5062604;28;20483;-74
2021/09/20 00:03:59;;;;;;;14.63;13.00;;;11.50;99.90;;;;;;5058477;28;20033;-73
2021/09/20 00:06:25;;;;;;;15.85;13.65;;;11.50;99.90;;;;;;5060484;28;20025;-73
2021/09/20 00:08:50;;;;;;;15.38;12.82;;;11.60;99.90;;;;;;5068126;28;20583;-73
2021/09/20 00:11:17;;;;;;;14.75;13.25;;;11.70;99.90;;;;;;5070368;28;20032;-74
2021/09/20 00:13:42;;;;;;;15.38;13.05;;;11.60;99.90;;;;;;5056742;28;20042;-73
2021/09/20 00:16:08;;;;;;;15.00;12.95;;;11.40;99.90;;;;;;5060999;28;20056;-74
2021/09/20 00:18:33;;;;;;;14.52;12.75;;;11.50;99.90;;;;;;5065052;28;20025;-76
2021/09/20 00:20:59;;;;;;;15.65;13.27;;;11.60;99.90;;;;;;5050133;28;20029;-74
2021/09/20 00:23:24;;;;;;;17.15;13.13;;;11.70;99.90;;;;;;5065072;28;20037;-74
2021/09/20 00:25:50;;;;;;;14.13;12.63;;;11.50;99.90;;;;;;5050403;28;20025;-75
2021/09/20 00:28:16;;;;;;;13.95;12.23;;;11.50;99.90;;;;;;5055401;28;20198;-73
2021/09/20 00:30:42;;;;;;;13.38;11.98;;;11.50;99.90;;;;;;5071465;28;20039;-74
2021/09/20 00:33:08;;;;;;;13.55;11.70;;;11.40;99.90;;;;;;5056796;28;20098;-74
2021/09/20 00:35:34;;;;;;;13.50;12.10;;;11.50;99.90;;;;;;5061420;28;20491;-74
2021/09/20 00:37:59;;;;;;;14.32;12.82;;;11.50;99.90;;;;;;5065117;28;20032;-73
2021/09/20 00:40:25;;;;;;;14.98;13.38;;;11.40;99.90;;;;;;5061543;28;20490;-74
2021/09/20 00:42:50;;;;;;;14.73;13.10;;;11.30;99.90;;;;;;5056541;28;20028;-74
2021/09/20 00:45:16;;;;;;;18.25;13.02;;;11.30;99.90;;;;;;5060299;28;20437;-75
2021/09/20 00:47:42;;;;;;;15.82;12.98;;;11.20;99.90;;;;;;5065016;28;20407;-73
2021/09/20 00:50:08;;;;;;;17.73;13.38;;;11.20;99.90;;;;;;5051477;28;20049;-73
2021/09/20 00:52:33;;;;;;;14.98;13.10;;;11.50;99.90;;;;;;5053217;28;20387;-73
2021/09/20 00:54:59;;;;;;;15.93;13.25;;;11.30;99.90;;;;;;5061127;28;20091;-74
2021/09/20 00:57:25;;;;;;;17.08;13.90;;;11.10;99.90;;;;;;5063409;28;20025;-75
2021/09/20 00:59:51;;;;;;;15.52;13.73;;;10.80;99.90;;;;;;5061769;28;20031;-74
2021/09/20 01:02:16;;;;;;;16.08;14.27;;;10.80;99.90;;;;;;5066204;28;20040;-74
2021/09/20 01:04:42;;;;;;;18.40;13.38;;;10.80;99.90;;;;;;5061293;28;20024;-74
2021/09/20 01:07:08;;;;;;;15.43;12.90;;;10.90;99.90;;;;;;5057597;28;20036;-74
2021/09/20 01:09:38;;;;;;;14.57;13.07;;;11.10;99.90;;;;;;5061495;28;20060;-74
2021/09/20 01:12:04;;;;;;;15.27;13.55;;;11.20;99.90;;;;;;5064236;28;20017;-74
2021/09/20 01:14:30;;;;;;;16.63;14.05;;;11.20;99.90;;;;;;5061372;28;20543;-74
2021/09/20 01:16:55;;;;;;;16.30;13.77;;;11.20;99.90;;;;;;5057496;28;20028;-74
2021/09/20 01:19:21;;;;;;;18.30;13.95;;;11.20;99.90;;;;;;5062755;28;20033;-74
2021/09/20 01:21:46;;;;;;;15.05;13.30;;;11.20;99.90;;;;;;5068203;28;20087;-74
2021/09/20 01:24:12;;;;;;;15.55;13.48;;;11.30;99.90;;;;;;5064539;28;20028;-74
2021/09/20 01:26:37;;;;;;;15.40;13.80;;;11.30;99.90;;;;;;5056528;28;20043;-74
2021/09/20 01:29:07;;;;;;;14.82;13.32;;;11.30;99.90;;;;;;5064580;28;20033;-75
2021/09/20 01:31:33;;;;;;;15.30;13.57;;;11.40;99.90;;;;;;5060779;28;20032;-75
2021/09/20 01:33:59;;;;;;;17.42;13.88;;;11.20;99.90;;;;;;5064096;28;20021;-74
2021/09/20 01:36:24;;;;;;;15.93;13.77;;;11.20;99.90;;;;;;5071324;28;20040;-75
2021/09/20 01:38:50;;;;;;;17.83;14.65;;;11.10;99.90;;;;;;5062913;28;20029;-75
2021/09/20 01:41:15;;;;;;;16.75;14.20;;;11.00;99.90;;;;;;5067629;28;20037;-75
2021/09/20 01:43:41;;;;;;;16.83;13.70;;;11.10;99.90;;;;;;5062799;28;20028;-74
2021/09/20 01:46:07;;;;;;;16.25;14.10;;;11.10;99.90;;;;;;5060800;28;20035;-74
2021/09/20 01:48:32;;;;;;;15.35;13.38;;;11.00;99.90;;;;;;5064226;28;20112;-75
2021/09/20 01:50:58;;;;;;;15.05;13.48;;;11.10;99.90;;;;;;5057891;28;20021;-75
2021/09/20 01:53:23;;;;;;;16.27;13.60;;;11.20;99.90;;;;;;5063333;28;20029;-76
2021/09/20 01:55:49;;;;;;;16.23;13.77;;;11.30;99.90;;;;;;5056762;28;20085;-76
2021/09/20 01:58:14;;;;;;;17.77;14.00;;;11.20;99.90;;;;;;5073031;28;20031;-77
2021/09/20 02:00:43;;;;;;;15.57;13.60;;;11.20;99.90;;;;;;5060928;28;20036;-76
2021/09/20 02:03:10;;;;;;;15.73;13.75;;;11.10;99.90;;;;;;5062081;28;20033;-76
2021/09/20 02:05:36;;;;;;;16.08;14.38;;;11.20;99.90;;;;;;5061834;28;20052;-76
2021/09/20 02:08:01;;;;;;;16.33;13.65;;;11.10;99.90;;;;;;5069250;28;20553;-76
2021/09/20 02:10:27;;;;;;;16.98;13.85;;;11.10;99.90;;;;;;5071429;28;20101;-76
2021/09/20 02:12:52;;;;;;;19.77;14.32;;;11.20;99.90;;;;;;5061764;28;20036;-75
2021/09/20 02:15:18;;;;;;;16.85;13.70;;;11.10;99.90;;;;;;5057150;28;20044;-76
2021/09/20 02:17:43;;;;;;;16.67;13.88;;;11.20;99.90;;;;;;5072362;28;20432;-76
2021/09/20 02:20:10;;;;;;;20.13;14.65;;;11.20;99.90;;;;;;5060011;28;20039;-76
2021/09/20 02:22:35;;;;;;;16.70;14.13;;;11.30;99.90;;;;;;5071839;28;20048;-75
2021/09/20 02:25:07;;;;;;;16.27;13.68;;;11.10;99.90;;;;;;5072299;28;20052;-74
2021/09/20 02:27:34;;;;;;;15.48;13.10;;;11.10;99.90;;;;;;5064275;28;20371;-75
2021/09/20 02:30:01;;;;;;;18.48;13.77;;;11.20;99.90;;;;;;5059745;28;20096;-75
2021/09/20 02:32:27;;;;;;;16.95;14.98;;;11.00;99.90;;;;;;5062090;28;20483;-75
2021/09/20 02:34:52;;;;;;;17.15;15.07;;;11.00;99.90;;;;;;5065904;28;20033;-74
2021/09/20 02:37:18;;;;;;;19.15;14.57;;;11.00;99.90;;;;;;5052417;28;20459;-74
2021/09/20 02:39:43;;;;;;;17.23;14.68;;;11.00;99.90;;;;;;5053113;28;20540;-75
2021/09/20 02:42:09;;;;;;;15.68;14.00;;;10.90;99.90;;;;;;5052828;28;20086;-74
2021/09/20 02:44:35;;;;;;;16.90;14.57;;;10.70;99.90;;;;;;5066426;28;20040;-75
2021/09/20 02:47:00;;;;;;;19.35;14.15;;;10.80;99.90;;;;;;5063799;28;20485;-74
2021/09/20 02:49:26;;;;;;;17.25;14.40;;;10.90;99.90;;;;;;5060025;28;20537;-74
2021/09/20 02:51:51;;;;;;;18.75;14.38;;;10.90;99.90;;;;;;5061391;28;20025;-74
2021/09/20 02:54:17;;;;;;;18.52;15.25;;;10.80;99.90;;;;;;5070426;28;20510;-74
2021/09/20 02:56:42;;;;;;;17.65;14.55;;;10.90;99.90;;;;;;5061665;28;20029;-75
2021/09/20 02:59:08;;;;;;;19.77;15.18;;;11.00;99.90;;;;;;5064862;28;20552;-74
2021/09/20 03:01:33;;;;;;;16.83;15.00;;;11.10;99.90;;;;;;5063344;28;20478;-75
2021/09/20 03:03:59;;;;;;;19.45;15.43;;;11.10;99.90;;;;;;5057838;28;20055;-75
2021/09/20 03:06:24;;;;;;;16.15;14.07;;;11.10;99.90;;;;;;5062127;28;20057;-74
2021/09/20 03:08:50;;;;;;;17.25;14.18;;;11.10;99.90;;;;;;5056233;28;20455;-75
2021/09/20 03:11:15;;;;;;;19.88;15.07;;;11.00;99.90;;;;;;5062336;28;20021;-75
2021/09/20 03:13:41;;;;;;;15.65;13.95;;;11.00;99.90;;;;;;5065841;28;20052;-76
2021/09/20 03:16:06;;;;;;;15.50;13.90;;;11.10;99.90;;;;;;5062603;28;20391;-75
2021/09/20 03:18:32;;;;;;;17.67;14.70;;;11.20;99.90;;;;;;5058789;28;20497;-75
2021/09/20 03:20:58;;;;;;;16.55;14.05;;;11.10;99.90;;;;;;5062329;28;20036;-76
2021/09/20 03:23:23;;;;;;;18.27;14.20;;;11.10;99.90;;;;;;5065584;28;20414;-75
2021/09/20 03:25:49;;;;;;;16.45;14.40;;;11.10;99.90;;;;;;5061984;28;20028;-75
2021/09/20 03:28:14;;;;;;;15.73;14.05;;;11.20;99.90;;;;;;5058738;28;20021;-75
2021/09/20 03:30:40;;;;;;;15.85;13.48;;;11.10;99.90;;;;;;5062568;28;20064;-77
2021/09/20 03:33:05;;;;;;;16.38;13.73;;;11.10;99.90;;;;;;5064666;28;20084;-77
2021/09/20 03:35:31;;;;;;;16.80;14.05;;;11.00;99.90;;;;;;5062819;28;20046;-76
2021/09/20 03:37:56;;;;;;;17.63;14.30;;;11.00;99.90;;;;;;5062054;28;20025;-76
2021/09/20 03:40:22;;;;;;;18.50;14.30;;;11.20;99.90;;;;;;5069052;28;20075;-77
2021/09/20 03:42:48;;;;;;;18.30;15.00;;;11.20;99.90;;;;;;5068781;28;20470;-77
2021/09/20 03:45:14;;;;;;;17.25;14.75;;;10.90;99.90;;;;;;5063829;28;20028;-77
2021/09/20 03:47:40;;;;;;;16.88;14.20;;;10.80;99.90;;;;;;5059210;28;20028;-77
2021/09/20 03:50:07;;;;;;;16.83;13.98;;;10.80;99.90;;;;;;5070713;28;20016;-76
2021/09/20 03:52:33;;;;;;;18.92;13.82;;;10.60;99.90;;;;;;5058407;28;20031;-77
2021/09/20 03:54:59;;;;;;;16.73;13.70;;;10.60;99.90;;;;;;5063005;28;20037;-76
2021/09/20 03:57:24;;;;;;;15.50;13.90;;;10.80;99.90;;;;;;5070289;28;20025;-74
2021/09/20 03:59:50;;;;;;;16.08;14.13;;;10.90;99.90;;;;;;5061593;28;20072;-75
2021/09/20 04:02:15;;;;;;;16.48;14.23;;;10.90;99.90;;;;;;5055255;28;20031;-74
2021/09/20 04:04:41;;;;;;;16.70;14.43;;;10.90;99.90;;;;;;5061323;28;20029;-75
2021/09/20 04:07:06;;;;;;;15.88;13.55;;;10.90;99.90;;;;;;5065109;28;20025;-75
2021/09/20 04:09:32;;;;;;;17.50;14.23;;;10.80;99.90;;;;;;5051768;28;20352;-75
2021/09/20 04:11:58;;;;;;;15.90;13.75;;;10.60;99.90;;;;;;5064869;28;20025;-74
2021/09/20 04:14:23;;;;;;;16.88;14.27;;;10.60;99.90;;;;;;5062180;28;20103;-74
2021/09/20 04:16:49;;;;;;;14.85;13.20;;;10.80;99.90;;;;;;5058181;28;20056;-75
2021/09/20 04:19:14;;;;;;;15.65;13.30;;;10.80;99.90;;;;;;5061563;28;20394;-74
2021/09/20 04:21:40;;;;;;;15.90;13.52;;;10.80;99.90;;;;;;5063549;28;20021;-73
2021/09/20 04:24:05;;;;;;;15.70;13.18;;;10.80;99.90;;;;;;5061491;28;20475;-73
2021/09/20 04:26:31;;;;;;;17.55;13.63;;;10.70;99.90;;;;;;5055001;28;20079;-75
2021/09/20 04:28:56;;;;;;;16.27;14.55;;;10.70;99.90;;;;;;5050311;28;20025;-75
2021/09/20 04:31:22;;;;;;;16.10;12.77;;;10.80;99.90;;;;;;5064799;28;20483;-75
2021/09/20 04:33:48;;;;;;;15.48;13.25;;;10.80;99.90;;;;;;5060988;28;20479;-73
2021/09/20 04:36:13;;;;;;;14.50;12.90;;;10.80;99.90;;;;;;5057999;28;20035;-74
2021/09/20 04:38:39;;;;;;;15.48;13.05;;;10.90;99.90;;;;;;5062045;28;20036;-74
2021/09/20 04:41:05;;;;;;;14.52;12.45;;;10.90;99.90;;;;;;5054137;28;20047;-74
2021/09/20 04:43:30;;;;;;;16.58;12.77;;;11.00;99.90;;;;;;5060439;28;20082;-73
2021/09/20 04:45:56;;;;;;;14.32;12.45;;;11.00;99.90;;;;;;5064465;28;20029;-74
2021/09/20 04:48:21;;;;;;;14.38;12.93;;;10.90;99.90;;;;;;5050965;28;20029;-74
2021/09/20 04:50:49;;;;;;;19.73;12.50;;;10.80;99.90;;;;;;5066879;28;20033;-73
2021/09/20 04:53:15;;;;;;;13.57;12.20;;;10.80;99.90;;;;;;5060796;28;20499;-72
2021/09/20 04:55:40;;;;;;;15.27;12.52;;;10.80;99.90;;;;;;5067517;28;20033;-74
2021/09/20 04:58:08;;;;;;;13.93;11.55;;;10.70;99.90;;;;;;5075081;28;20031;-75
2021/09/20 05:00:35;;;;;;;13.07;11.63;;;10.80;99.90;;;;;;5061292;28;20111;-76
2021/09/20 05:03:01;;;;;;;13.80;11.60;;;10.80;99.90;;;;;;5063653;28;20167;-75
2021/09/20 05:05:27;;;;;;;13.13;11.38;;;10.80;99.90;;;;;;5068244;28;20465;-74
2021/09/20 05:07:52;;;;;;;13.57;11.45;;;11.00;99.90;;;;;;5064817;28;20024;-75
2021/09/20 05:10:18;;;;;;;12.60;11.07;;;11.00;99.90;;;;;;5061364;28;20033;-75
2021/09/20 05:12:44;;;;;;;11.50;10.32;;;11.00;99.90;;;;;;5074497;28;20020;-76
2021/09/20 05:15:10;;;;;;;12.13;10.38;;;11.00;99.90;;;;;;5061244;28;20028;-76
2021/09/20 05:17:37;;;;;;;11.23;10.10;;;11.00;99.90;;;;;;5073636;28;20074;-76
2021/09/20 05:20:05;;;;;;;13.00;10.43;;;10.80;99.90;;;;;;5061589;28;20024;-75
2021/09/20 05:22:30;;;;;;;13.20;10.30;;;10.90;99.90;;;;;;5062942;28;20029;-75
2021/09/20 05:24:56;;;;;;;11.05;9.82;;;10.90;99.90;;;;;;5067945;28;20025;-75
2021/09/20 05:27:22;;;;;;;10.77;9.68;;;10.90;99.90;;;;;;5064426;28;20536;-74
2021/09/20 05:29:47;;;;;;;10.13;9.13;;;11.00;99.90;;;;;;5060980;28;20496;-74
2021/09/20 05:32:13;;;;;;;10.43;9.32;;;11.00;99.90;;;;;;5064491;28;20025;-75
2021/09/20 05:34:38;;;;;;;11.98;9.48;;;11.00;99.90;;;;;;5067682;28;20491;-75
2021/09/20 05:37:04;;;;;;;10.48;9.38;;;11.00;99.90;;;;;;5064316;28;20028;-75
2021/09/20 05:39:31;;;;;;;10.23;9.05;;;10.80;99.90;;;;;;5073118;28;20382;-73
2021/09/20 05:41:56;;;;;;;11.07;9.63;;;10.80;99.90;;;;;;5064377;28;20021;-74
2021/09/20 05:44:22;;;;;;;11.40;9.48;;;10.90;99.90;;;;;;5067601;28;20033;-75
2021/09/20 05:46:47;;;;;;;11.60;9.23;;;10.80;99.90;;;;;;5063378;28;20032;-75
2021/09/20 05:49:13;;;;;;;11.23;10.02;;;10.70;99.90;;;;;;5058115;28;20029;-75
2021/09/20 05:51:38;;;;;;;13.48;9.73;;;10.70;99.90;;;;;;5061994;28;20025;-74
2021/09/20 05:54:04;;;;;;;10.02;9.05;;;10.70;99.90;;;;;;5060489;28;20036;-74
2021/09/20 05:56:29;;;;;;;11.10;9.55;;;10.90;99.90;;;;;;5064355;28;20056;-75
2021/09/20 05:58:55;;;;;;;12.32;9.85;;;10.90;99.90;;;;;;5067430;28;20036;-75
2021/09/20 06:01:20;;;;;;;12.32;9.80;;;11.00;99.90;;;;;;5062905;28;20035;-74
2021/09/20 06:03:47;;;;;;;11.98;10.68;;;11.00;99.90;;;;;;5057745;28;20455;-74
2021/09/20 06:06:12;;;;;;;10.77;9.48;;;11.10;99.90;;;;;;5062783;28;20024;-74
2021/09/20 06:08:38;;;;;;;11.95;10.63;;;11.10;99.90;;;;;;5060229;28;20039;-75
2021/09/20 06:11:03;;;;;;;13.60;10.05;;;11.20;99.90;;;;;;5063351;28;20024;-75
2021/09/20 06:13:29;;;;;;;12.90;10.43;;;11.10;99.90;;;;;;5066828;28;20067;-75
2021/09/20 06:15:55;;;;;;;11.05;9.65;;;11.00;99.90;;;;;;5062537;28;20030;-74
2021/09/20 06:18:20;;;;;;;11.07;9.95;;;10.90;99.90;;;;;;5060345;28;20092;-74
2021/09/20 06:20:46;;;;;;;11.38;9.93;;;11.10;99.90;;;;;;5064619;28;20053;-74
2021/09/20 06:23:11;;;;;;;12.57;9.98;;;11.10;99.90;;;;;;5062161;28;20025;-75
2021/09/20 06:25:37;;;;;;;12.75;9.65;;;11.10;99.90;;;;;;5072129;28;20036;-74
2021/09/20 06:28:04;;;;;;;10.95;9.85;;;11.10;99.90;;;;;;5058013;28;20021;-75
2021/09/20 06:30:29;;;;;;;11.00;9.82;;;11.20;99.90;;;;;;5054925;28;20020;-75
2021/09/20 06:32:55;;;;;;;13.57;9.63;;;11.20;99.90;;;;;;5071174;28;20086;-75
2021/09/20 06:35:20;;;;;;;10.75;9.68;;;11.20;99.90;;;;;;5061612;28;20031;-74
2021/09/20 06:37:47;;;;;;;12.00;10.70;;;11.30;99.90;;;;;;5059678;28;20029;-75
2021/09/20 06:40:14;;;;;;;11.43;9.18;;;11.20;99.90;;;;;;5064770;28;20483;-74
2021/09/20 06:42:40;;;;;;;11.10;9.75;;;11.30;99.90;;;;;;5068022;28;20028;-74
2021/09/20 06:45:06;;;;;;;10.20;9.10;;;11.40;99.90;;;;;;5064376;28;20028;-74
2021/09/20 06:47:32;;;;;;;10.68;9.27;;;11.40;99.90;;;;;;5066402;28;20090;-74
2021/09/20 06:49:57;;;;;;;10.65;9.57;;;11.30;99.90;;;;;;5053006;28;20494;-74
2021/09/20 06:52:23;;;;;;;12.23;8.95;;;11.20;99.90;;;;;;5066095;28;20067;-75
2021/09/20 06:54:49;;;;;;;10.23;9.20;;;11.20;99.90;;;;;;5052765;28;20043;-75
2021/09/20 06:57:14;;;;;;;10.98;8.95;;;11.30;99.90;;;;;;5065020;28;20047;-74
2021/09/20 06:59:40;;;;;;;13.05;9.00;;;11.30;99.90;;;;;;5061193;28;20074;-74
2021/09/20 07:02:05;;;;;;;9.25;8.35;;;11.30;99.90;;;;;;5059153;28;20060;-74
2021/09/20 07:04:32;;;;;;;10.00;8.93;;;11.20;99.90;;;;;;5064894;28;20099;-75
2021/09/20 07:06:57;;;;;;;9.68;8.73;;;11.30;99.90;;;;;;5054370;28;20025;-74
2021/09/20 07:09:23;;;;;;;10.88;9.02;;;11.30;99.90;;;;;;5064283;28;20067;-73
2021/09/20 07:11:48;;;;;;;9.60;8.50;;;11.30;99.90;;;;;;5052535;28;20063;-73
2021/09/20 07:14:14;;;;;;;9.02;7.40;;;11.20;99.90;;;;;;5065203;28;20024;-73
2021/09/20 07:16:41;;;;;;;9.68;7.78;;;11.30;99.90;;;;;;5066558;28;20482;-75
2021/09/20 07:19:06;;;;;;;8.57;7.53;;;11.40;99.90;;;;;;5064463;28;20550;-75
2021/09/20 07:21:32;;;;;;;9.30;8.20;;;11.30;99.90;;;;;;5064221;28;20024;-75
2021/09/20 07:23:59;;;;;;;8.30;7.50;;;11.40;99.90;;;;;;5060318;28;20060;-75
2021/09/20 07:26:26;;;;;;;8.07;7.28;;;11.50;99.90;;;;;;5057472;28;20025;-74
2021/09/20 07:28:53;;;;;;;9.13;7.70;;;11.50;99.90;;;;;;5063834;28;20102;-75
2021/09/20 07:31:20;;;;;;;8.88;7.93;;;11.50;99.90;;;;;;5053538;28;20020;-75
2021/09/20 07:33:45;;;;;;;10.13;7.32;;;11.40;99.90;;;;;;5063760;28;20088;-75
2021/09/20 07:36:11;;;;;;;8.05;6.82;;;11.50;99.90;;;;;;5065492;28;20551;-75
2021/09/20 07:38:37;;;;;;;7.35;6.68;;;11.50;99.90;;;;;;5050899;28;20029;-75
2021/09/20 07:41:04;;;;;;;8.13;6.45;;;11.50;99.90;;;;;;5053655;28;20029;-75
2021/09/20 07:43:30;;;;;;;7.43;6.72;;;11.50;99.90;;;;;;5062065;28;20036;-75
2021/09/20 07:45:56;;;;;;;7.32;6.55;;;11.50;99.90;;;;;;5053675;28;20036;-73
2021/09/20 07:48:21;;;;;;;7.20;6.50;;;11.60;99.90;;;;;;5064777;28;20059;-73
2021/09/20 07:50:47;;;;;;;7.30;6.60;;;11.70;99.90;;;;;;5069315;28;20021;-73
2021/09/20 07:53:12;;;;;;;6.90;6.20;;;11.60;99.90;;;;;;5068726;28;20074;-74
2021/09/20 07:55:39;;;;;;;8.68;6.38;;;11.70;99.90;;;;;;5061495;28;20375;-74
2021/09/20 07:58:07;;;;;;;6.80;5.95;;;11.80;99.90;;;;;;5066747;28;20028;-74
2021/09/20 08:00:34;;;;;;;7.15;6.47;;;11.90;99.90;;;;;;5066271;28;20029;-75
2021/09/20 08:03:00;;;;;;;6.50;5.90;;;12.00;99.90;;;;;;5060389;28;20020;-75
2021/09/20 08:05:25;;;;;;;7.22;6.18;;;12.00;99.90;;;;;;5055965;28;20036;-75
2021/09/20 08:07:51;;;;;;;6.50;5.88;;;12.00;99.90;;;;;;5068967;28;20017;-75
2021/09/20 08:10:17;;;;;;;9.18;6.47;;;12.00;99.90;;;;;;5070501;28;20315;-75
2021/09/20 08:12:43;;;;;;;7.57;6.00;;;12.10;99.90;;;;;;5071497;28;20036;-75
2021/09/20 08:15:09;;;;;;;8.75;6.40;;;12.00;99.90;;;;;;5058506;28;20029;-75
2021/09/20 08:17:35;;;;;;;6.88;6.18;;;12.00;99.90;;;;;;5062462;28;20040;-75
2021/09/20 08:20:06;;;;;;;7.28;5.85;;;12.10;99.90;;;;;;5062263;28;20029;-75
2021/09/20 08:22:32;;;;;;;7.63;6.05;;;12.00;99.90;;;;;;5054244;28;20364;-75
2021/09/20 08:24:59;;;;;;;6.95;6.00;;;12.10;99.90;;;;;;5067745;28;20092;-75
2021/09/20 08:27:26;;;;;;;6.93;5.75;;;12.20;99.90;;;;;;5053168;28;20063;-75
2021/09/20 08:29:52;;;;;;;6.85;6.07;;;12.40;99.90;;;;;;5069207;28;20028;-75
2021/09/20 08:32:19;;;;;;;7.05;6.35;;;12.40;99.90;;;;;;5065220;28;20033;-75
2021/09/20 08:34:44;;;;;;;6.97;6.32;;;12.50;99.90;;;;;;5058051;28;20387;-75
2021/09/20 08:37:10;;;;;;;7.32;6.47;;;12.50;99.90;;;;;;5056719;28;20024;-75
2021/09/20 08:39:36;;;;;;;7.10;6.40;;;12.50;99.90;;;;;;5068721;28;20029;-75
2021/09/20 08:42:02;;;;;;;7.22;6.03;;;12.50;99.90;;;;;;5064907;28;20099;-75
2021/09/20 08:44:28;;;;;;;6.78;6.10;;;12.60;99.90;;;;;;5068653;28;20041;-75
2021/09/20 08:46:54;;;;;;;6.85;5.90;;;12.50;99.90;;;;;;5065086;28;20115;-74
2021/09/20 08:49:22;;;;;;;7.60;6.05;;;12.50;99.90;;;;;;5058719;28;20036;-75
2021/09/20 08:51:51;;;;;;;8.02;6.72;;;12.60;99.90;;;;;;5065664;28;20031;-75
2021/09/20 08:54:17;;;;;;;6.40;5.80;;;12.90;99.90;;;;;;5070757;28;20032;-75
2021/09/20 08:56:43;;;;;;;7.65;6.13;;;12.80;99.90;;;;;;5066138;28;20024;-75
2021/09/20 08:59:08;;;;;;;6.82;6.00;;;12.80;99.90;;;;;;5061644;28;20418;-76
2021/09/20 09:01:35;;;;;;;7.72;6.00;;;12.90;99.90;;;;;;5063625;28;20032;-75
2021/09/20 09:04:40;;;;;;;6.68;5.72;;;12.90;99.90;;;;;;5068516;28;20549;-75
2021/09/20 09:07:07;;;;;;;7.25;5.82;;;13.20;99.90;;;;;;5029316;28;20056;-75
2021/09/20 09:09:34;;;;;;;7.20;6.45;;;13.20;99.90;;;;;;5022940;28;20060;-75
2021/09/20 09:12:09;;;;;;;6.32;5.68;;;13.40;99.90;;;;;;5032849;28;20028;-75
2021/09/20 09:14:40;;;;;;;6.68;6.03;;;13.60;99.90;;;;;;5063501;28;20013;-76
2021/09/20 09:17:33;;;;;;;7.53;6.10;;;13.80;99.90;;;;;;5066701;28;20021;-75
2021/09/20 09:20:04;;;;;;;6.15;5.55;;;13.80;99.90;;;;;;5067875;28;20044;-75
2021/09/20 09:22:41;;;;;;;6.00;5.40;;;13.70;99.90;;;;;;5064195;28;20149;-75
2021/09/20 09:25:09;;;;;;;6.15;5.55;;;13.80;99.90;;;;;;5060997;28;20020;-75
2021/09/20 09:27:39;;;;;;;5.90;5.28;;;14.00;99.90;;;;;;5061954;28;20021;-75
2021/09/20 09:30:25;;;;;;;7.72;6.00;;;13.90;99.90;;;;;;5066638;28;20048;-75
2021/09/20 09:33:12;;;;;;;6.38;5.38;;;14.00;99.90;;;;;;5054381;28;20025;-75
2021/09/20 09:35:43;;;;;;;6.30;5.70;;;13.90;99.90;;;;;;5065205;28;20031;-75
2021/09/20 09:38:09;;;;;;;6.57;5.85;;;14.10;99.90;;;;;;5069619;28;20040;-75
2021/09/20 09:40:56;;;;;;;6.75;5.47;;;14.30;99.90;;;;;;5063397;28;20024;-75
2021/09/20 09:43:22;;;;;;;;;;;14.50;99.90;;;;;;5060690;28;20032;-75
2021/09/20 09:45:48;;;;;;;5.93;5.32;;;14.20;99.90;;;;;;5060575;28;19919;-75
2021/09/20 09:48:17;;;;;;;6.05;5.43;;;14.20;99.90;;;;;;5065614;28;20104;-75
2021/09/20 09:50:49;;;;;;;5.63;5.13;;;14.30;99.90;;;;;;5055600;28;20025;-75
2021/09/20 09:53:36;;;;;;;9.88;5.50;;;14.30;99.90;;;;;;5064897;28;20024;-76
2021/09/20 09:56:15;;;;;;;8.43;5.65;;;13.90;99.90;;;;;;5073000;28;20032;-76
2021/09/20 09:59:00;;;;;;;8.73;5.55;;;13.70;99.90;;;;;;5060835;28;20158;-76
2021/09/20 10:01:34;;;;;;;6.20;5.35;;;13.70;99.90;;;;;;5063225;28;20112;-75
2021/09/20 10:04:04;;;;;;;6.25;5.47;;;13.70;99.90;;;;;;5068440;28;20536;-75
2021/09/20 10:06:45;;;;;;;6.22;5.63;;;13.70;99.90;;;;;;5065999;28;20025;-75
2021/09/20 10:09:17;;;;;;;5.63;5.13;;;14.10;99.90;;;;;;5060623;28;20486;-75
2021/09/20 10:11:47;;;;;;;6.35;5.40;;;14.40;99.90;;;;;;5073611;28;20033;-75
2021/09/20 10:14:14;;;;;;;5.50;4.97;;;14.70;99.90;;;;;;5065506;28;20025;-76
2021/09/20 10:16:41;;;;;;;5.43;4.93;;;14.60;99.90;;;;;;5066822;28;20037;-76
2021/09/20 10:19:07;;;;;;;5.28;4.78;;;14.10;99.90;;;;;;5060915;28;20028;-75
2021/09/20 10:21:33;;;;;;;5.85;5.22;;;13.90;99.90;;;;;;5058008;28;20032;-76
2021/09/20 10:24:00;;;;;;;5.43;4.93;;;13.80;99.90;;;;;;5062188;28;20028;-75
2021/09/20 10:26:27;;;;;;;5.65;5.05;;;14.20;99.90;;;;;;5058431;28;20171;-74
2021/09/20 10:28:56;;;;;;;5.70;4.65;;;14.10;99.90;;;;;;5064844;28;20071;-74
2021/09/20 10:31:23;;;;;;;5.95;5.30;;;14.40;99.90;;;;;;5066615;28;20471;-75
2021/09/20 10:33:48;;;;;;;5.82;5.22;;;14.80;99.90;;;;;;5061079;28;20421;-76
2021/09/20 10:36:14;;;;;;;7.75;5.30;;;15.20;99.90;;;;;;5058366;28;20025;-75
2021/09/20 10:38:51;;;;;;;5.10;4.60;;;15.10;99.90;;;;;;5064427;28;20036;-75
2021/09/20 10:41:22;;;;;;;5.43;4.50;;;14.70;99.90;;;;;;5066480;28;20438;-76
2021/09/20 10:44:08;;;;;;;5.45;4.43;;;14.30;99.90;;;;;;5064115;28;20103;-76
2021/09/20 10:46:38;;;;;;;6.00;5.35;;;14.00;99.90;;;;;;5059934;28;20078;-74
2021/09/20 10:49:05;;;;;;;5.93;5.28;;;14.00;99.90;;;;;;5060345;28;20304;-76
2021/09/20 10:51:37;;;;;;;6.35;4.93;;;14.10;99.90;;;;;;5064313;28;20024;-75
2021/09/20 10:54:23;;;;;;;5.13;4.63;;;14.20;99.90;;;;;;5066207;28;20029;-75
2021/09/20 10:57:18;;;;;;;5.43;4.90;;;14.40;99.90;;;;;;5063337;28;20024;-75
2021/09/20 10:59:43;;;;;;;5.25;4.70;;;14.90;99.90;;;;;;5062029;28;20032;-75
2021/09/20 11:02:22;;;;;;;6.43;4.82;;;15.60;99.90;;;;;;5057952;28;20479;-76
2021/09/20 11:04:48;;;;;;;5.80;4.50;;;15.70;99.90;;;;;;5072731;28;20029;-75
2021/09/20 11:07:19;;;;;;;6.45;4.80;;;15.20;99.90;;;;;;5059256;28;20045;-75
2021/09/20 11:10:10;;;;;;;5.55;5.05;;;15.10;99.90;;;;;;5061027;28;20058;-76
2021/09/20 11:13:05;;;;;;;7.80;5.10;;;14.80;99.90;;;;;;5060718;28;20040;-76
2021/09/20 11:15:42;;;;;;;5.50;5.00;;;14.40;99.90;;;;;;5058521;28;20030;-75
2021/09/20 11:18:09;;;;;;;4.95;4.47;;;14.40;99.90;;;;;;5057739;28;20025;-75
2021/09/20 11:20:41;;;;;;;6.90;5.35;;;14.20;99.90;;;;;;5064813;28;20487;-75
2021/09/20 11:23:20;;;;;;;6.90;5.28;;;14.60;99.90;;;;;;5064566;28;20120;-76
2021/09/20 11:26:08;;;;;;;5.38;4.88;;;15.00;99.90;;;;;;5062635;28;20056;-75
2021/09/20 11:28:37;;;;;;;5.40;4.90;;;15.50;99.90;;;;;;5058855;28;20021;-75
2021/09/20 11:31:03;;;;;;;6.28;4.43;;;15.80;99.90;;;;;;5058505;28;20147;-75
2021/09/20 11:33:44;;;;;;;8.13;5.15;;;15.60;99.90;;;;;;5064215;28;20724;-75
2021/09/20 11:36:28;;;;;;;5.50;4.97;;;15.60;99.90;;;;;;5064353;28;20024;-76
2021/09/20 11:39:12;;;;;;;5.85;4.85;;;15.30;99.90;;;;;;5061857;28;20020;-76
2021/09/20 11:41:40;;;;;;;5.35;4.78;;;15.60;99.90;;;;;;5063664;28;20039;-76
2021/09/20 11:44:05;;;;;;;5.20;4.70;;;15.60;99.90;;;;;;5064273;28;20535;-76
2021/09/20 11:46:31;;;;;;;5.07;4.60;;;16.40;99.90;;;;;;5057294;28;20124;-76
2021/09/20 11:49:01;;;;;;;5.65;4.85;;;16.60;99.90;;;;;;5063167;28;20059;-75
2021/09/20 11:51:27;;;;;;;6.57;5.28;;;16.20;99.90;;;;;;5062615;28;20393;-76
2021/09/20 11:53:53;;;;;;;5.30;4.80;;;16.10;99.90;;;;;;5065176;28;20028;-76
2021/09/20 11:56:24;;;;;;;5.78;5.18;;;17.00;99.90;;;;;;5059613;28;20063;-76
2021/09/20 11:58:59;;;;;;;5.25;4.75;;;18.00;99.90;;;;;;5057127;28;20120;-76
2021/09/20 12:01:26;;;;;;;6.00;5.40;;;18.60;99.90;;;;;;5060909;28;20021;-76
2021/09/20 12:03:56;;;;;;;5.97;5.20;;;18.90;99.90;;;;;;5064769;28;20029;-76
2021/09/20 12:06:30;;;;;;;5.72;5.13;;;18.30;99.90;;;;;;5062123;28;20039;-75
2021/09/20 12:08:57;;;;;;;5.28;4.78;;;18.50;99.90;;;;;;5058230;28;20043;-75
2021/09/20 12:11:23;;;;;;;5.32;4.82;;;18.40;99.90;;;;;;5060058;28;20020;-75
2021/09/20 12:13:49;;;;;;;5.35;4.85;;;19.50;99.90;;;;;;5064007;28;20036;-77
2021/09/20 12:16:15;;;;;;;5.55;5.05;;;20.40;99.90;;;;;;5061804;28;20024;-77
2021/09/20 12:18:40;;;;;;;5.53;4.93;;;20.50;99.90;;;;;;5058241;28;20021;-77
2021/09/20 12:21:08;;;;;;;5.45;4.50;;;19.60;99.90;;;;;;5058960;28;20029;-77
2021/09/20 12:23:48;;;;;;;5.82;4.68;;;18.80;99.90;;;;;;5063672;28;20127;-76
2021/09/20 12:26:16;;;;;;;5.40;4.90;;;18.40;99.90;;;;;;5065200;28;20025;-77
2021/09/20 12:28:55;;;;;;;4.78;4.38;;;17.80;99.90;;;;;;5058487;28;20024;-76
2021/09/20 12:31:36;;;;;;;6.05;4.40;;;17.50;99.90;;;;;;5057814;28;20480;-76
2021/09/20 12:34:03;;;;;;;5.95;4.78;;;17.10;99.90;;;;;;5060862;28;20052;-77
2021/09/20 12:36:32;;;;;;;5.40;4.68;;;16.80;99.90;;;;;;5055383;28;20067;-76
2021/09/20 12:39:12;;;;;;;5.50;5.00;;;16.60;99.90;;;;;;5059222;28;20036;-75